Time;durP1;ratioP1;P1;durP2;ratioP2;P2;SDS_P1;SDS_P2;PMS_P1;PMS_P2;Temp;Humidity;BMP_temperature;BMP_pressure;BME280_temperature;BME280_humidity;BME280_pressure;Samples;Min_cycle;Max_cycle;Signal;HPM_P1;HPM_P2
2023/03/03 00:00:05;;;;;;;50.53;30.15;;;;;;;;;;4937804;29;20067;-62
2023/03/03 00:02:38;;;;;;;48.95;29.33;;;;;;;;;;4921742;29;20091;-63
2023/03/03 00:05:03;;;;;;;48.67;29.42;;;;;;;;;;4920727;29;20047;-62
2023/03/03 00:07:28;;;;;;;54.30;30.75;;;;;;;;;;4937628;29;20046;-62
2023/03/03 00:09:54;;;;;;;47.95;29.17;;;;;;;;;;4937625;29;20031;-62
2023/03/03 00:12:27;;;;;;;49.83;29.98;;;;;;;;;;4937556;29;20436;-62
2023/03/03 00:14:53;;;;;;;45.17;28.85;;;;;;;;;;4937581;29;20067;-62
2023/03/03 00:17:24;;;;;;;45.30;28.23;;;;;;;;;;4920566;29;20078;-62
2023/03/03 00:19:50;;;;;;;52.65;30.40;;;;;;;;;;4937674;29;20043;-62
2023/03/03 00:22:27;;;;;;;58.85;35.58;;;;;;;;;;4937477;29;20131;-62
2023/03/03 00:24:52;;;;;;;83.65;45.58;;;;;;;;;;4937372;29;20058;-57
2023/03/03 00:27:29;;;;;;;81.00;44.85;;;;;;;;;;4937208;29;20469;-57
2023/03/03 00:29:56;;;;;;;80.20;44.63;;;;;;;;;;4920185;29;20036;-58
2023/03/03 00:32:52;;;;;;;66.28;38.63;;;;;;;;;;4920197;29;20036;-57
2023/03/03 00:35:23;;;;;;;72.47;40.65;;;;;;;;;;4921325;29;20277;-57
2023/03/03 00:37:49;;;;;;;63.63;37.27;;;;;;;;;;4920201;29;20122;-58
2023/03/03 00:40:20;;;;;;;64.57;37.75;;;;;;;;;;4937055;29;20047;-58
2023/03/03 00:42:47;;;;;;;63.20;36.67;;;;;;;;;;4937094;29;20086;-57
2023/03/03 00:45:29;;;;;;;62.38;36.63;;;;;;;;;;4919736;29;20058;-57
2023/03/03 00:47:56;;;;;;;54.20;34.38;;;;;;;;;;4936886;29;20373;-57
2023/03/03 00:50:29;;;;;;;55.00;34.58;;;;;;;;;;4937102;29;20550;-57
2023/03/03 00:53:00;;;;;;;55.10;32.00;;;;;;;;;;4936961;29;20051;-57
2023/03/03 00:55:26;;;;;;;51.97;29.85;;;;;;;;;;4919782;29;20082;-57
2023/03/03 00:57:51;;;;;;;54.90;30.65;;;;;;;;;;4936792;29;20078;-57
2023/03/03 01:00:22;;;;;;;51.97;31.08;;;;;;;;;;4919732;29;20040;-62
2023/03/03 01:02:47;;;;;;;51.35;31.20;;;;;;;;;;4919734;29;20050;-62
2023/03/03 01:05:13;;;;;;;52.30;32.38;;;;;;;;;;4936661;29;20440;-62
2023/03/03 01:07:39;;;;;;;57.13;34.90;;;;;;;;;;4936566;29;20047;-62
2023/03/03 01:10:05;;;;;;;59.85;35.58;;;;;;;;;;4936607;29;20499;-63
2023/03/03 01:12:31;;;;;;;57.67;33.90;;;;;;;;;;4936633;29;20492;-62
2023/03/03 01:14:56;;;;;;;58.00;33.13;;;;;;;;;;4919451;29;20047;-62
2023/03/03 01:17:21;;;;;;;56.60;33.38;;;;;;;;;;4936143;29;20044;-62
2023/03/03 01:19:47;;;;;;;55.53;33.45;;;;;;;;;;4919393;29;20484;-62
2023/03/03 01:22:12;;;;;;;55.42;32.47;;;;;;;;;;4936490;29;20063;-62
2023/03/03 01:24:37;;;;;;;54.10;31.25;;;;;;;;;;4936534;29;20071;-62
2023/03/03 01:27:03;;;;;;;52.53;30.70;;;;;;;;;;4919283;29;20151;-62
2023/03/03 01:29:29;;;;;;;54.00;31.20;;;;;;;;;;4919557;29;20427;-62
2023/03/03 01:31:54;;;;;;;59.05;32.75;;;;;;;;;;4936350;29;20560;-62
2023/03/03 01:34:20;;;;;;;55.67;31.95;;;;;;;;;;4919238;29;20042;-63
2023/03/03 01:36:46;;;;;;;50.38;30.52;;;;;;;;;;4919263;29;20134;-62
2023/03/03 01:39:11;;;;;;;55.85;32.42;;;;;;;;;;4936289;29;20114;-62
2023/03/03 01:41:36;;;;;;;59.05;32.03;;;;;;;;;;4936218;29;20428;-62
2023/03/03 01:44:02;;;;;;;53.25;31.98;;;;;;;;;;4919051;29;20480;-62
2023/03/03 01:46:27;;;;;;;51.70;31.50;;;;;;;;;;4936126;29;20563;-62
2023/03/03 01:48:54;;;;;;;52.33;30.58;;;;;;;;;;4936180;29;20043;-62
2023/03/03 01:51:22;;;;;;;54.83;31.30;;;;;;;;;;4919091;29;20039;-62
2023/03/03 01:53:56;;;;;;;58.13;31.67;;;;;;;;;;4936417;29;20040;-62
2023/03/03 01:56:21;;;;;;;61.00;32.28;;;;;;;;;;4936350;29;20084;-63
2023/03/03 01:58:52;;;;;;;52.70;29.75;;;;;;;;;;4918888;29;20063;-62
2023/03/03 02:01:21;;;;;;;53.45;30.25;;;;;;;;;;4918983;29;20053;-58
2023/03/03 02:03:47;;;;;;;51.53;31.50;;;;;;;;;;4936062;29;20507;-58
2023/03/03 02:06:14;;;;;;;52.45;29.95;;;;;;;;;;4918960;29;20272;-58
2023/03/03 02:08:42;;;;;;;59.17;31.92;;;;;;;;;;4935917;29;20063;-58
2023/03/03 02:11:09;;;;;;;67.82;33.38;;;;;;;;;;4919256;29;20453;-57
2023/03/03 02:13:34;;;;;;;77.93;35.72;;;;;;;;;;4918963;29;20055;-58
2023/03/03 02:16:00;;;;;;;58.95;32.75;;;;;;;;;;4935946;29;20036;-58
2023/03/03 02:18:26;;;;;;;64.38;33.78;;;;;;;;;;4903224;29;20067;-58
2023/03/03 02:21:04;;;;;;;56.47;32.92;;;;;;;;;;4936155;29;20066;-58
2023/03/03 02:23:52;;;;;;;61.30;33.33;;;;;;;;;;4935931;29;20436;-58
2023/03/03 02:26:21;;;;;;;57.47;32.00;;;;;;;;;;4918747;29;20067;-58
2023/03/03 02:28:51;;;;;;;60.47;33.38;;;;;;;;;;4920649;29;20040;-58
2023/03/03 02:31:18;;;;;;;68.30;35.30;;;;;;;;;;4922291;29;20492;-58
2023/03/03 02:33:45;;;;;;;67.47;34.55;;;;;;;;;;4922254;29;20035;-63
2023/03/03 02:36:14;;;;;;;62.33;33.47;;;;;;;;;;4922301;29;20118;-63
2023/03/03 02:38:43;;;;;;;68.57;36.50;;;;;;;;;;4939307;29;20074;-62
2023/03/03 02:41:26;;;;;;;64.72;34.97;;;;;;;;;;4922160;29;20039;-62
2023/03/03 02:44:06;;;;;;;78.20;38.35;;;;;;;;;;4922150;29;20043;-62
2023/03/03 02:46:36;;;;;;;62.97;34.55;;;;;;;;;;4922041;29;20500;-62
2023/03/03 02:49:03;;;;;;;69.40;36.30;;;;;;;;;;4922068;29;20193;-62
2023/03/03 02:51:28;;;;;;;55.47;32.70;;;;;;;;;;4939048;29;20511;-62
2023/03/03 02:53:53;;;;;;;61.78;34.72;;;;;;;;;;4938987;29;20059;-62
2023/03/03 02:56:19;;;;;;;58.80;34.75;;;;;;;;;;4906195;29;20036;-62
2023/03/03 02:58:44;;;;;;;56.83;34.35;;;;;;;;;;4938893;29;20112;-62
2023/03/03 03:01:10;;;;;;;55.72;32.47;;;;;;;;;;4939142;29;20039;-62
2023/03/03 03:03:35;;;;;;;58.33;34.25;;;;;;;;;;4921843;29;20454;-58
2023/03/03 03:06:03;;;;;;;51.72;30.77;;;;;;;;;;4921722;29;20058;-58
2023/03/03 03:08:28;;;;;;;52.38;30.00;;;;;;;;;;4938788;29;20485;-58
2023/03/03 03:10:55;;;;;;;51.28;30.67;;;;;;;;;;4921663;29;20047;-58
2023/03/03 03:13:22;;;;;;;59.00;32.63;;;;;;;;;;4939028;29;20050;-58
2023/03/03 03:15:48;;;;;;;55.08;32.35;;;;;;;;;;4905852;29;20548;-58
2023/03/03 03:18:13;;;;;;;57.28;32.65;;;;;;;;;;4921538;29;20043;-58
2023/03/03 03:20:41;;;;;;;57.15;33.42;;;;;;;;;;4921419;29;20066;-58
2023/03/03 03:23:07;;;;;;;51.42;29.45;;;;;;;;;;4921429;29;20036;-58
2023/03/03 03:25:33;;;;;;;43.10;26.02;;;;;;;;;;4921490;29;20044;-58
2023/03/03 03:27:58;;;;;;;66.55;36.13;;;;;;;;;;4921230;29;20480;-58
2023/03/03 03:30:24;;;;;;;52.75;30.77;;;;;;;;;;4921256;29;20488;-58
2023/03/03 03:32:50;;;;;;;49.47;28.85;;;;;;;;;;4938334;29;20460;-58
2023/03/03 03:35:16;;;;;;;51.47;29.38;;;;;;;;;;4921289;29;20094;-63
2023/03/03 03:37:42;;;;;;;48.20;28.50;;;;;;;;;;4921213;29;20500;-63
2023/03/03 03:40:08;;;;;;;44.35;25.42;;;;;;;;;;4920796;29;20051;-62
2023/03/03 03:42:33;;;;;;;47.53;27.55;;;;;;;;;;4983599;23;20126;-59
2023/03/03 03:44:58;;;;;;;49.28;28.67;;;;;;;;;;4987103;23;20062;-62
2023/03/03 03:47:24;;;;;;;54.15;31.08;;;;;;;;;;4978782;28;20394;-62
2023/03/03 03:49:49;;;;;;;59.85;33.33;;;;;;;;;;4978452;28;20049;-62
2023/03/03 03:52:15;;;;;;;57.20;32.85;;;;;;;;;;4978702;28;20365;-62
2023/03/03 03:54:41;;;;;;;56.90;32.80;;;;;;;;;;4978541;28;20151;-62
2023/03/03 03:57:07;;;;;;;61.88;33.47;;;;;;;;;;4994516;28;20053;-62
2023/03/03 03:59:33;;;;;;;56.22;30.45;;;;;;;;;;4978285;28;20074;-62
2023/03/03 04:01:58;;;;;;;54.75;30.85;;;;;;;;;;4962221;28;20070;-63
2023/03/03 04:04:24;;;;;;;62.25;34.65;;;;;;;;;;4978225;28;20081;-62
2023/03/03 04:06:50;;;;;;;76.45;36.30;;;;;;;;;;4978109;28;20065;-62
2023/03/03 04:09:15;;;;;;;73.40;36.22;;;;;;;;;;4995523;28;20066;-62
2023/03/03 04:11:41;;;;;;;82.82;37.53;;;;;;;;;;4977996;28;20038;-63
2023/03/03 04:14:08;;;;;;;84.97;39.47;;;;;;;;;;4962294;28;20089;-62
2023/03/03 04:16:34;;;;;;;109.30;51.78;;;;;;;;;;4978054;28;20497;-63
2023/03/03 04:19:00;;;;;;;64.13;34.92;;;;;;;;;;4977974;28;20036;-62
2023/03/03 04:21:26;;;;;;;59.58;32.33;;;;;;;;;;4995292;28;20142;-63
2023/03/03 04:23:54;;;;;;;59.70;34.03;;;;;;;;;;4962109;28;20441;-63
2023/03/03 04:26:20;;;;;;;119.30;57.30;;;;;;;;;;4978160;28;20042;-62
2023/03/03 04:28:46;;;;;;;103.78;50.85;;;;;;;;;;4977656;28;20100;-63
2023/03/03 04:31:12;;;;;;;64.32;37.95;;;;;;;;;;4977717;28;20137;-62
2023/03/03 04:33:37;;;;;;;62.70;34.67;;;;;;;;;;4995386;28;20038;-62
2023/03/03 04:36:04;;;;;;;57.50;32.88;;;;;;;;;;4977685;28;20038;-62
2023/03/03 04:38:29;;;;;;;53.90;32.28;;;;;;;;;;4977487;28;20394;-63
2023/03/03 04:40:55;;;;;;;74.78;40.38;;;;;;;;;;4977533;28;20040;-63
2023/03/03 04:43:22;;;;;;;58.90;34.42;;;;;;;;;;4977362;28;20498;-63
2023/03/03 04:45:47;;;;;;;88.15;45.05;;;;;;;;;;4977412;28;20050;-63
2023/03/03 04:48:13;;;;;;;102.75;50.75;;;;;;;;;;4977388;28;20042;-63
2023/03/03 04:50:38;;;;;;;88.80;45.33;;;;;;;;;;4976730;28;20457;-58
2023/03/03 04:53:04;;;;;;;97.00;48.38;;;;;;;;;;4977224;28;20113;-57
2023/03/03 04:55:29;;;;;;;101.22;49.33;;;;;;;;;;4977548;28;20042;-58
2023/03/03 04:57:55;;;;;;;102.15;51.13;;;;;;;;;;4977251;28;20042;-57
2023/03/03 05:00:21;;;;;;;95.85;50.10;;;;;;;;;;4978076;28;20050;-58
2023/03/03 05:02:46;;;;;;;108.68;54.20;;;;;;;;;;4976969;28;20129;-57
2023/03/03 05:05:12;;;;;;;105.50;52.97;;;;;;;;;;4976954;28;20041;-64
2023/03/03 05:07:38;;;;;;;130.95;61.72;;;;;;;;;;4992400;28;20151;-61
2023/03/03 05:10:05;;;;;;;150.32;65.70;;;;;;;;;;4993371;28;20038;-60
2023/03/03 05:12:30;;;;;;;277.15;107.22;;;;;;;;;;4993350;28;20402;-60
2023/03/03 05:14:55;;;;;;;198.05;83.85;;;;;;;;;;4993674;28;20057;-60
2023/03/03 05:17:20;;;;;;;306.70;117.57;;;;;;;;;;4993667;28;20038;-60
2023/03/03 05:19:46;;;;;;;103.78;49.92;;;;;;;;;;4993477;28;20129;-60
2023/03/03 05:22:11;;;;;;;99.57;49.85;;;;;;;;;;4993503;28;20050;-60
2023/03/03 05:24:39;;;;;;;81.50;45.92;;;;;;;;;;4975765;28;20082;-56
2023/03/03 05:27:04;;;;;;;74.45;43.42;;;;;;;;;;4993440;28;20039;-55
2023/03/03 05:29:30;;;;;;;67.20;39.13;;;;;;;;;;4975671;28;20033;-56
2023/03/03 05:31:56;;;;;;;62.97;37.40;;;;;;;;;;4993199;28;20121;-55
2023/03/03 05:34:22;;;;;;;60.90;35.50;;;;;;;;;;4993070;28;20085;-55
2023/03/03 05:36:48;;;;;;;62.67;35.72;;;;;;;;;;4992735;28;20037;-56
2023/03/03 05:39:13;;;;;;;70.25;40.88;;;;;;;;;;4992760;28;20042;-56
2023/03/03 05:41:39;;;;;;;77.90;43.17;;;;;;;;;;4975618;28;20050;-58
2023/03/03 05:44:04;;;;;;;69.40;40.03;;;;;;;;;;4975466;28;20050;-58
2023/03/03 05:46:29;;;;;;;65.40;39.03;;;;;;;;;;4993044;28;20046;-58
2023/03/03 05:48:55;;;;;;;68.47;39.10;;;;;;;;;;4992730;28;20441;-58
2023/03/03 05:51:20;;;;;;;58.72;34.00;;;;;;;;;;4992271;28;20505;-58
2023/03/03 05:53:45;;;;;;;49.15;30.67;;;;;;;;;;4975409;28;20037;-58
2023/03/03 05:56:10;;;;;;;48.58;30.10;;;;;;;;;;4975382;28;20117;-58
2023/03/03 05:58:36;;;;;;;61.40;36.60;;;;;;;;;;4992650;28;20371;-63
2023/03/03 06:01:01;;;;;;;53.10;32.22;;;;;;;;;;4975659;28;20049;-58
2023/03/03 06:03:26;;;;;;;47.63;29.67;;;;;;;;;;4978141;28;20042;-58
2023/03/03 06:05:52;;;;;;;47.55;28.75;;;;;;;;;;4979264;28;20364;-58
2023/03/03 06:08:17;;;;;;;42.53;27.38;;;;;;;;;;4996650;28;20046;-57
2023/03/03 06:10:42;;;;;;;48.53;27.83;;;;;;;;;;4996662;28;20574;-63
2023/03/03 06:13:09;;;;;;;42.38;27.25;;;;;;;;;;4979067;28;20050;-63
2023/03/03 06:15:35;;;;;;;42.47;28.02;;;;;;;;;;4996486;28;20069;-63
2023/03/03 06:18:00;;;;;;;48.05;27.75;;;;;;;;;;4996273;28;20031;-61
2023/03/03 06:20:25;;;;;;;44.65;28.10;;;;;;;;;;4996672;28;20093;-62
2023/03/03 06:22:51;;;;;;;48.65;29.45;;;;;;;;;;4996186;28;20089;-61
2023/03/03 06:25:16;;;;;;;52.00;30.70;;;;;;;;;;4978877;28;20161;-62
2023/03/03 06:27:41;;;;;;;49.85;29.33;;;;;;;;;;4978759;28;20046;-62
2023/03/03 06:30:07;;;;;;;49.00;28.75;;;;;;;;;;4978709;28;20045;-62
2023/03/03 06:32:32;;;;;;;46.17;29.13;;;;;;;;;;4996157;28;20027;-62
2023/03/03 06:34:57;;;;;;;51.08;29.92;;;;;;;;;;4996156;28;20057;-61
2023/03/03 06:37:22;;;;;;;54.90;31.63;;;;;;;;;;4996120;28;20042;-61
2023/03/03 06:39:48;;;;;;;53.38;31.70;;;;;;;;;;4996499;28;20080;-61
2023/03/03 06:42:13;;;;;;;66.53;39.65;;;;;;;;;;4979556;28;20049;-61
2023/03/03 06:44:38;;;;;;;71.45;41.70;;;;;;;;;;4997141;28;20077;-62
2023/03/03 06:47:04;;;;;;;72.45;42.28;;;;;;;;;;4996999;28;20479;-62
2023/03/03 06:49:30;;;;;;;71.60;41.40;;;;;;;;;;4997090;28;20038;-62
2023/03/03 06:52:00;;;;;;;76.75;42.72;;;;;;;;;;4997070;28;20495;-62
2023/03/03 06:54:28;;;;;;;79.05;42.80;;;;;;;;;;4996409;28;20348;-62
2023/03/03 06:56:57;;;;;;;81.18;44.53;;;;;;;;;;4996131;28;20121;-62
2023/03/03 06:59:23;;;;;;;76.85;43.80;;;;;;;;;;4996066;28;20038;-62
2023/03/03 07:01:49;;;;;;;78.47;43.90;;;;;;;;;;4996060;28;20396;-62
2023/03/03 07:04:14;;;;;;;77.68;43.17;;;;;;;;;;4996027;28;20066;-62
2023/03/03 07:06:39;;;;;;;70.63;41.83;;;;;;;;;;4995956;28;20061;-62
2023/03/03 07:09:08;;;;;;;75.13;42.67;;;;;;;;;;4978726;28;20042;-58
2023/03/03 07:11:38;;;;;;;69.70;41.47;;;;;;;;;;4996351;28;20545;-58
2023/03/03 07:14:12;;;;;;;77.03;41.55;;;;;;;;;;4995677;28;20043;-62
2023/03/03 07:16:38;;;;;;;67.32;39.10;;;;;;;;;;4996329;28;20049;-62
2023/03/03 07:19:10;;;;;;;70.55;40.45;;;;;;;;;;4996246;28;20133;-61
2023/03/03 07:21:36;;;;;;;80.22;44.90;;;;;;;;;;4996247;28;20041;-60
2023/03/03 07:24:13;;;;;;;73.97;43.95;;;;;;;;;;4996198;28;20038;-59
2023/03/03 07:26:39;;;;;;;69.85;41.22;;;;;;;;;;4978889;28;20054;-59
2023/03/03 07:29:20;;;;;;;74.88;41.95;;;;;;;;;;4995999;28;20410;-59
2023/03/03 07:31:46;;;;;;;72.85;41.40;;;;;;;;;;4996006;28;20037;-59
2023/03/03 07:34:21;;;;;;;75.40;42.55;;;;;;;;;;4978549;28;20049;-60
2023/03/03 07:36:47;;;;;;;71.03;39.95;;;;;;;;;;4978544;28;20038;-59
2023/03/03 07:39:29;;;;;;;72.15;42.42;;;;;;;;;;4995955;28;20026;-59
2023/03/03 07:42:01;;;;;;;68.88;40.97;;;;;;;;;;4995922;28;20096;-55
2023/03/03 07:44:33;;;;;;;67.65;38.90;;;;;;;;;;4995638;28;20050;-59
2023/03/03 07:47:10;;;;;;;70.28;40.83;;;;;;;;;;4978309;28;20117;-59
2023/03/03 07:49:36;;;;;;;63.80;39.38;;;;;;;;;;4995779;28;20134;-59
2023/03/03 07:52:16;;;;;;;61.28;36.88;;;;;;;;;;4995711;28;20039;-59
2023/03/03 07:54:42;;;;;;;60.72;37.10;;;;;;;;;;4995664;28;20042;-59
2023/03/03 07:57:13;;;;;;;64.68;38.95;;;;;;;;;;4995550;28;20034;-59
2023/03/03 07:59:43;;;;;;;64.80;40.10;;;;;;;;;;4977989;28;20073;-59
2023/03/03 08:02:28;;;;;;;65.38;39.47;;;;;;;;;;4995478;28;20086;-59
2023/03/03 08:04:54;;;;;;;63.22;38.97;;;;;;;;;;4939047;28;20046;-59
2023/03/03 08:07:21;;;;;;;68.38;40.33;;;;;;;;;;4977818;28;20382;-59
2023/03/03 08:09:49;;;;;;;69.95;41.35;;;;;;;;;;4995267;28;20038;-59
2023/03/03 08:12:18;;;;;;;70.72;42.67;;;;;;;;;;4995407;28;20042;-59
2023/03/03 08:14:44;;;;;;;71.80;43.97;;;;;;;;;;4995228;28;20097;-57
2023/03/03 08:17:20;;;;;;;75.13;42.38;;;;;;;;;;4995533;28;20494;-58
2023/03/03 08:19:46;;;;;;;72.55;42.30;;;;;;;;;;4995062;28;20113;-56
2023/03/03 08:22:14;;;;;;;69.40;42.00;;;;;;;;;;4995148;28;20542;-55
2023/03/03 08:24:39;;;;;;;66.85;39.15;;;;;;;;;;4995022;28;20474;-55
2023/03/03 08:27:04;;;;;;;63.33;36.10;;;;;;;;;;4993957;28;20042;-55
2023/03/03 08:29:30;;;;;;;59.28;35.65;;;;;;;;;;4995005;28;20093;-55
2023/03/03 08:31:55;;;;;;;64.43;36.65;;;;;;;;;;4994901;28;20062;-55
2023/03/03 08:34:20;;;;;;;60.00;34.45;;;;;;;;;;4994951;28;20371;-55
2023/03/03 08:36:46;;;;;;;69.88;38.45;;;;;;;;;;4994787;28;20038;-55
2023/03/03 08:39:12;;;;;;;70.75;37.25;;;;;;;;;;4996801;23;20069;-55
2023/03/03 08:41:39;;;;;;;62.30;34.97;;;;;;;;;;5033409;23;20058;-59
2023/03/03 08:44:05;;;;;;;73.72;37.58;;;;;;;;;;5035245;23;20054;-55
2023/03/03 08:46:30;;;;;;;71.90;39.15;;;;;;;;;;5026172;23;20061;-59
2023/03/03 08:48:55;;;;;;;68.65;37.90;;;;;;;;;;5014191;28;20042;-59
2023/03/03 08:51:20;;;;;;;77.18;38.70;;;;;;;;;;5014193;28;20179;-59
2023/03/03 08:53:46;;;;;;;75.97;37.95;;;;;;;;;;5014087;28;20034;-59
2023/03/03 08:56:11;;;;;;;77.20;37.63;;;;;;;;;;5014009;28;20038;-59
2023/03/03 08:58:36;;;;;;;75.65;36.70;;;;;;;;;;4996515;28;20077;-62
2023/03/03 09:01:02;;;;;;;71.63;36.17;;;;;;;;;;5014092;28;20050;-62
2023/03/03 09:03:28;;;;;;;69.15;35.83;;;;;;;;;;5013882;28;20033;-62
2023/03/03 09:05:54;;;;;;;70.47;34.15;;;;;;;;;;5013979;28;20050;-62
2023/03/03 09:08:19;;;;;;;75.55;36.92;;;;;;;;;;5013812;28;20030;-62
2023/03/03 09:10:44;;;;;;;71.43;34.38;;;;;;;;;;5013813;28;20033;-62
2023/03/03 09:13:14;;;;;;;78.35;36.08;;;;;;;;;;5013799;28;20038;-62
2023/03/03 09:15:39;;;;;;;73.80;35.38;;;;;;;;;;4996266;28;20468;-62
2023/03/03 09:18:07;;;;;;;70.75;34.83;;;;;;;;;;4996026;28;20125;-62
2023/03/03 09:20:36;;;;;;;66.55;33.28;;;;;;;;;;5013749;28;20042;-62
2023/03/03 09:23:20;;;;;;;67.65;33.47;;;;;;;;;;5013655;28;20088;-62
2023/03/03 09:25:45;;;;;;;62.65;30.67;;;;;;;;;;5013563;28;20045;-62
2023/03/03 09:28:20;;;;;;;65.55;30.35;;;;;;;;;;5013834;28;20037;-62
2023/03/03 09:30:47;;;;;;;59.83;29.75;;;;;;;;;;5013517;28;20033;-62
2023/03/03 09:33:23;;;;;;;62.70;29.85;;;;;;;;;;5013513;28;20470;-62
2023/03/03 09:36:07;;;;;;;59.60;30.10;;;;;;;;;;5013469;28;20116;-62
2023/03/03 09:38:33;;;;;;;60.15;29.98;;;;;;;;;;5013216;28;20038;-62
2023/03/03 09:41:17;;;;;;;56.28;29.90;;;;;;;;;;5013502;28;20401;-62
2023/03/03 09:43:53;;;;;;;60.45;29.27;;;;;;;;;;5013494;28;20041;-61
2023/03/03 09:46:37;;;;;;;60.60;28.83;;;;;;;;;;5013308;28;20045;-61
2023/03/03 09:49:10;;;;;;;61.53;30.73;;;;;;;;;;5013329;28;20082;-61
2023/03/03 09:51:38;;;;;;;55.65;29.27;;;;;;;;;;5013429;28;20038;-61
2023/03/03 09:54:11;;;;;;;56.75;28.23;;;;;;;;;;4995826;28;20058;-61
2023/03/03 09:56:41;;;;;;;56.00;27.55;;;;;;;;;;5013271;28;20394;-60
2023/03/03 09:59:23;;;;;;;57.90;30.20;;;;;;;;;;5013313;28;20049;-60
2023/03/03 10:01:51;;;;;;;55.65;27.95;;;;;;;;;;5013240;28;20038;-61
2023/03/03 10:04:35;;;;;;;52.75;27.85;;;;;;;;;;4995769;28;20026;-61
2023/03/03 10:07:06;;;;;;;53.60;26.85;;;;;;;;;;5013195;28;20053;-61
2023/03/03 10:09:40;;;;;;;51.78;26.40;;;;;;;;;;5013307;28;20030;-61
2023/03/03 10:12:05;;;;;;;42.63;23.00;;;;;;;;;;5013278;28;20100;-61
2023/03/03 10:14:45;;;;;;;41.17;23.25;;;;;;;;;;5013242;28;20026;-61
2023/03/03 10:17:24;;;;;;;39.15;20.80;;;;;;;;;;5013195;28;20045;-57
2023/03/03 10:19:49;;;;;;;35.50;20.13;;;;;;;;;;5013122;28;20549;-56
2023/03/03 10:22:33;;;;;;;32.97;18.27;;;;;;;;;;5013095;28;20034;-56
2023/03/03 10:25:16;;;;;;;28.73;14.93;;;;;;;;;;5013059;28;20475;-59
2023/03/03 10:27:56;;;;;;;36.78;19.70;;;;;;;;;;5013001;28;20145;-58
2023/03/03 10:30:22;;;;;;;;;;;;;;;;;;5013502;28;20042;-58
2023/03/03 10:33:00;;;;;;;24.85;15.68;;;;;;;;;;5011866;28;19909;-58
2023/03/03 10:35:44;;;;;;;31.05;17.88;;;;;;;;;;5012952;28;20042;-58
2023/03/03 10:38:18;;;;;;;29.75;16.60;;;;;;;;;;4995572;28;20046;-58
2023/03/03 10:41:03;;;;;;;31.35;18.23;;;;;;;;;;5012898;28;20042;-58
2023/03/03 10:43:34;;;;;;;30.45;17.48;;;;;;;;;;5012853;28;20069;-57
2023/03/03 10:46:02;;;;;;;34.30;19.08;;;;;;;;;;5012619;28;20042;-57
2023/03/03 10:48:36;;;;;;;37.65;19.40;;;;;;;;;;5012694;28;20050;-58
2023/03/03 10:51:20;;;;;;;32.80;18.80;;;;;;;;;;5016286;28;20044;-58
2023/03/03 10:53:52;;;;;;;29.27;17.48;;;;;;;;;;4998682;28;20037;-58
2023/03/03 10:56:38;;;;;;;32.28;18.67;;;;;;;;;;5016319;28;20076;-58
2023/03/03 10:59:30;;;;;;;31.80;17.05;;;;;;;;;;5016275;28;20091;-58
2023/03/03 11:02:01;;;;;;;32.38;18.33;;;;;;;;;;5014041;28;20077;-58
2023/03/03 11:05:00;;;;;;;35.47;19.70;;;;;;;;;;5016123;28;20493;-58
2023/03/03 11:07:25;;;;;;;35.30;18.70;;;;;;;;;;4993783;28;20041;-55
2023/03/03 11:09:57;;;;;;;34.75;19.25;;;;;;;;;;5016126;28;20116;-55
2023/03/03 11:12:31;;;;;;;33.05;19.58;;;;;;;;;;5015898;28;20033;-55
2023/03/03 11:15:05;;;;;;;32.75;19.05;;;;;;;;;;4998355;28;20113;-55
2023/03/03 11:17:47;;;;;;;32.15;18.42;;;;;;;;;;5015937;28;20038;-55
2023/03/03 11:20:29;;;;;;;32.10;18.15;;;;;;;;;;5015846;28;20117;-59
2023/03/03 11:23:02;;;;;;;34.80;19.70;;;;;;;;;;5015950;28;20042;-60
2023/03/03 11:25:39;;;;;;;29.88;18.45;;;;;;;;;;5015707;28;20124;-62
2023/03/03 11:28:05;;;;;;;32.92;18.75;;;;;;;;;;4998150;28;20049;-63
2023/03/03 11:30:33;;;;;;;28.65;17.20;;;;;;;;;;4998108;28;20041;-62
2023/03/03 11:33:17;;;;;;;27.40;16.58;;;;;;;;;;5015654;28;20060;-62
2023/03/03 11:35:48;;;;;;;26.58;16.23;;;;;;;;;;5015561;28;20041;-62
2023/03/03 11:38:31;;;;;;;22.17;12.75;;;;;;;;;;5015655;28;20045;-62
2023/03/03 11:41:10;;;;;;;25.05;15.38;;;;;;;;;;5015466;28;20042;-62
2023/03/03 11:43:39;;;;;;;26.77;15.95;;;;;;;;;;5015469;28;20041;-62
2023/03/03 11:46:07;;;;;;;28.85;16.60;;;;;;;;;;5015081;28;20038;-62
2023/03/03 11:48:36;;;;;;;24.80;14.38;;;;;;;;;;5015319;28;20393;-62
2023/03/03 11:51:04;;;;;;;27.10;15.25;;;;;;;;;;5015334;28;20419;-57
2023/03/03 11:53:38;;;;;;;28.08;16.25;;;;;;;;;;5015287;28;20160;-57
2023/03/03 11:56:30;;;;;;;25.60;15.45;;;;;;;;;;5015177;28;20052;-57
2023/03/03 11:59:13;;;;;;;30.15;16.95;;;;;;;;;;4999115;28;20041;-57
2023/03/03 12:02:02;;;;;;;28.98;16.63;;;;;;;;;;5014867;28;20062;-58
2023/03/03 12:04:32;;;;;;;33.00;18.83;;;;;;;;;;4995887;28;20038;-57
2023/03/03 12:07:19;;;;;;;26.27;14.43;;;;;;;;;;5014881;28;20510;-58
2023/03/03 12:10:01;;;;;;;28.98;16.40;;;;;;;;;;4997284;28;20088;-57
2023/03/03 12:12:32;;;;;;;29.75;16.85;;;;;;;;;;4997400;28;20045;-57
2023/03/03 12:14:57;;;;;;;27.67;15.23;;;;;;;;;;5014842;28;20100;-57
2023/03/03 12:17:31;;;;;;;27.45;15.43;;;;;;;;;;5014821;28;20045;-57
2023/03/03 12:20:03;;;;;;;28.10;15.18;;;;;;;;;;4997497;28;20038;-57
2023/03/03 12:22:32;;;;;;;28.33;15.10;;;;;;;;;;4997047;28;20072;-57
2023/03/03 12:25:20;;;;;;;28.38;15.80;;;;;;;;;;5014622;28;20034;-57
2023/03/03 12:28:04;;;;;;;28.00;15.07;;;;;;;;;;5014480;28;20076;-57
2023/03/03 12:30:34;;;;;;;22.38;13.13;;;;;;;;;;5014631;28;20038;-57
2023/03/03 12:33:11;;;;;;;26.60;14.55;;;;;;;;;;5014802;28;20038;-57
2023/03/03 12:35:52;;;;;;;23.25;13.45;;;;;;;;;;5014436;28;20482;-57
2023/03/03 12:38:17;;;;;;;;;;;;;;;;;;5014864;28;20074;-57
2023/03/03 12:40:53;;;;;;;30.17;15.77;;;;;;;;;;5014447;28;19949;-57
2023/03/03 12:43:18;;;;;;;29.10;15.07;;;;;;;;;;5014355;28;20436;-57
2023/03/03 12:45:43;;;;;;;23.98;14.40;;;;;;;;;;5014069;28;20141;-57
2023/03/03 12:48:20;;;;;;;21.70;12.38;;;;;;;;;;4996559;28;20046;-57
2023/03/03 12:51:05;;;;;;;23.70;13.82;;;;;;;;;;5013773;28;20508;-60
2023/03/03 12:53:43;;;;;;;23.98;12.80;;;;;;;;;;5013485;28;20418;-61
2023/03/03 12:56:09;;;;;;;22.25;12.82;;;;;;;;;;5014238;28;20037;-62
2023/03/03 12:58:37;;;;;;;24.05;12.75;;;;;;;;;;5009513;28;20389;-61
2023/03/03 13:01:09;;;;;;;23.73;12.85;;;;;;;;;;5012958;28;20073;-61
2023/03/03 13:03:42;;;;;;;18.67;10.15;;;;;;;;;;5014313;28;20038;-62
2023/03/03 13:06:28;;;;;;;18.83;11.23;;;;;;;;;;5014118;28;20096;-61
2023/03/03 13:08:59;;;;;;;17.75;11.27;;;;;;;;;;5013966;28;20037;-62
2023/03/03 13:11:31;;;;;;;19.73;11.82;;;;;;;;;;4995847;28;20542;-62
2023/03/03 13:13:56;;;;;;;21.63;12.52;;;;;;;;;;5013309;28;20030;-62
2023/03/03 13:16:32;;;;;;;20.75;12.10;;;;;;;;;;5013681;28;20528;-62
2023/03/03 13:18:57;;;;;;;28.02;14.73;;;;;;;;;;5008821;28;20034;-61
2023/03/03 13:21:26;;;;;;;29.65;15.90;;;;;;;;;;5014322;28;20088;-57
2023/03/03 13:24:01;;;;;;;23.92;13.18;;;;;;;;;;5014262;28;20466;-57
2023/03/03 13:26:27;;;;;;;19.92;12.10;;;;;;;;;;4996481;28;20038;-57
2023/03/03 13:29:15;;;;;;;23.42;13.85;;;;;;;;;;5014183;28;20045;-57
2023/03/03 13:31:46;;;;;;;20.10;12.38;;;;;;;;;;4986568;28;20036;-57
2023/03/03 13:34:31;;;;;;;21.25;11.88;;;;;;;;;;5012769;28;20049;-58
2023/03/03 13:37:03;;;;;;;24.00;13.75;;;;;;;;;;5012364;28;20077;-61
2023/03/03 13:39:32;;;;;;;15.93;9.80;;;;;;;;;;5013515;28;20394;-61
2023/03/03 13:42:05;;;;;;;17.27;10.63;;;;;;;;;;5013651;28;20547;-57
2023/03/03 13:44:34;;;;;;;17.02;10.77;;;;;;;;;;5013482;28;20065;-57
2023/03/03 13:47:00;;;;;;;16.92;10.63;;;;;;;;;;5012572;28;20046;-62
2023/03/03 13:49:31;;;;;;;17.15;10.38;;;;;;;;;;5013176;28;20038;-62
2023/03/03 13:52:06;;;;;;;16.63;10.43;;;;;;;;;;5015407;28;20389;-62
2023/03/03 13:54:43;;;;;;;17.63;11.13;;;;;;;;;;5023825;28;20038;-62
2023/03/03 13:57:22;;;;;;;15.75;9.93;;;;;;;;;;4995108;28;20073;-62
2023/03/03 14:00:03;;;;;;;21.05;12.68;;;;;;;;;;5012757;28;20042;-62
2023/03/03 14:02:49;;;;;;;20.23;12.80;;;;;;;;;;5012801;28;20077;-62
2023/03/03 14:05:24;;;;;;;18.45;13.10;;;;;;;;;;5013441;28;20100;-62
2023/03/03 14:08:06;;;;;;;19.80;12.35;;;;;;;;;;5012164;28;20109;-62
2023/03/03 14:10:34;;;;;;;21.77;13.38;;;;;;;;;;5012977;28;20077;-62
2023/03/03 14:13:32;;;;;;;21.10;13.35;;;;;;;;;;5012499;28;20030;-62
2023/03/03 14:16:04;;;;;;;22.70;13.35;;;;;;;;;;4958540;28;20454;-62
2023/03/03 14:18:38;;;;;;;21.05;12.90;;;;;;;;;;5012662;28;20046;-62
2023/03/03 14:21:09;;;;;;;25.48;15.60;;;;;;;;;;5013315;28;20038;-58
2023/03/03 14:23:41;;;;;;;23.70;13.50;;;;;;;;;;5014680;28;20100;-58
2023/03/03 14:26:07;;;;;;;20.95;13.20;;;;;;;;;;5036607;28;20046;-58
2023/03/03 14:28:47;;;;;;;22.42;13.63;;;;;;;;;;5035709;28;20041;-58
2023/03/03 14:31:15;;;;;;;40.28;19.00;;;;;;;;;;5018026;28;20124;-57